createdAt,value
2022-08-11T00:01:17.335Z,15.13
2022-08-11T00:06:29.151Z,15.43
2022-08-11T00:11:37.803Z,15.27
2022-08-11T00:16:42.231Z,15.65
2022-08-11T00:22:04.055Z,15.28
2022-08-11T00:27:09.470Z,15.20
2022-08-11T00:32:17.637Z,14.86
2022-08-11T00:37:23.551Z,15.09
2022-08-11T00:42:41.240Z,15.60
2022-08-11T00:48:00.311Z,14.82
2022-08-11T00:53:35.278Z,15.07
2022-08-11T00:59:34.675Z,14.90
2022-08-11T01:05:17.704Z,15.07
2022-08-11T01:10:46.038Z,15.16
2022-08-11T01:16:24.642Z,14.83
2022-08-11T01:22:05.997Z,15.24
2022-08-11T01:27:39.304Z,15.35
2022-08-11T01:33:12.735Z,15.34
2022-08-11T01:38:56.558Z,15.27
2022-08-11T01:44:40.296Z,15.06
2022-08-11T01:50:09.027Z,15.03
2022-08-11T01:55:24.305Z,15.05
2022-08-11T02:00:31.058Z,14.87
2022-08-11T02:05:51.580Z,14.65
2022-08-11T02:11:16.985Z,14.53
2022-08-11T02:16:34.560Z,14.45
2022-08-11T02:22:04.945Z,14.20
2022-08-11T02:27:14.503Z,14.39
2022-08-11T02:32:44.149Z,13.97
2022-08-11T02:37:53.527Z,13.84
2022-08-11T02:43:07.625Z,12.82
2022-08-11T02:48:58.864Z,12.91
2022-08-11T02:54:12.042Z,11.75
2022-08-11T02:59:44.683Z,11.35
2022-08-11T03:05:01.839Z,12.39
2022-08-11T03:10:11.289Z,11.27
2022-08-11T03:15:41.322Z,10.03
2022-08-11T03:20:59.512Z,10.14
2022-08-11T03:26:14.165Z,10.11
2022-08-11T03:31:25.078Z,11.05
2022-08-11T03:37:16.880Z,11.86
2022-08-11T03:42:30.464Z,11.85
2022-08-11T03:47:55.654Z,11.40
2022-08-11T03:53:12.713Z,11.33
2022-08-11T03:58:46.079Z,11.33
2022-08-11T04:04:05.772Z,11.20
2022-08-11T04:09:46.891Z,11.19
2022-08-11T04:15:38.486Z,10.86
2022-08-11T04:20:56.655Z,10.71
2022-08-11T04:26:39.838Z,10.72
2022-08-11T04:32:01.404Z,10.67
2022-08-11T04:37:34.846Z,10.40
2022-08-11T04:43:31.843Z,10.02
2022-08-11T04:49:33.819Z,9.72
2022-08-11T04:55:12.454Z,9.41
2022-08-11T05:00:36.955Z,9.15
2022-08-11T05:06:11.277Z,8.82
2022-08-11T05:11:33.985Z,8.46
2022-08-11T05:17:07.042Z,8.25
2022-08-11T05:22:32.751Z,7.81
2022-08-11T05:27:58.001Z,7.50
2022-08-11T05:33:24.567Z,7.08
2022-08-11T05:38:51.027Z,5.82
2022-08-11T05:44:19.818Z,4.95
2022-08-11T05:49:47.893Z,4.38
2022-08-11T05:55:11.379Z,3.79
2022-08-11T06:00:15.552Z,3.41
2022-08-11T06:05:19.462Z,3.03
2022-08-11T06:10:33.560Z,3.37
2022-08-11T06:15:45.381Z,2.26
2022-08-11T06:20:50.813Z,2.54
2022-08-11T06:25:56.465Z,1.74
2022-08-11T06:31:01.328Z,1.45
2022-08-11T06:36:09.885Z,0.79
2022-08-11T06:41:30.615Z,0.56
2022-08-11T06:46:39.283Z,-0.64
2022-08-11T06:51:48.569Z,0.23
2022-08-11T06:57:29.350Z,-0.98
2022-08-11T07:02:43.590Z,-0.81
2022-08-11T07:08:46.953Z,-1.13
2022-08-11T07:14:13.933Z,-2.22
2022-08-11T07:19:43.166Z,-1.80
2022-08-11T07:25:12.119Z,-3.07
2022-08-11T07:30:18.046Z,-3.12
2022-08-11T07:35:25.325Z,-3.34
2022-08-11T07:40:29.355Z,-4.50
2022-08-11T07:45:52.973Z,-5.05
2022-08-11T07:51:15.383Z,-5.50
2022-08-11T07:56:23.322Z,118.26
2022-08-11T08:02:03.048Z,118.33
2022-08-11T08:07:25.472Z,118.23
2022-08-11T08:12:48.466Z,117.63
2022-08-11T08:18:09.799Z,117.46
2022-08-11T08:23:18.091Z,115.83
2022-08-11T08:28:21.985Z,116.63
2022-08-11T08:33:29.066Z,116.63
2022-08-11T08:38:32.073Z,116.37
2022-08-11T08:43:48.599Z,116.46
2022-08-11T08:48:55.356Z,115.80
2022-08-11T08:54:04.123Z,112.22
2022-08-11T08:59:08.082Z,112.76
2022-08-11T09:04:18.979Z,108.74
2022-08-11T09:09:24.781Z,107.75
2022-08-11T09:14:51.899Z,109.16
2022-08-11T09:20:01.436Z,108.74
2022-08-11T09:25:23.712Z,110.70
2022-08-11T09:30:28.028Z,105.86
2022-08-11T09:35:37.040Z,107.55
2022-08-11T09:40:44.924Z,106.72
2022-08-11T09:45:52.598Z,104.58
2022-08-11T09:51:00.038Z,104.46
2022-08-11T09:56:23.911Z,104.48
2022-08-11T10:01:31.338Z,105.73
2022-08-11T10:06:56.529Z,105.36
2022-08-11T10:12:03.174Z,105.76
2022-08-11T10:17:09.003Z,105.38
2022-08-11T10:22:34.516Z,102.80
2022-08-11T10:27:39.822Z,99.73
2022-08-11T10:33:37.632Z,102.38
2022-08-11T10:38:47.115Z,98.38
2022-08-11T10:44:02.123Z,95.27
2022-08-11T10:49:08.332Z,94.05
2022-08-11T10:54:33.460Z,94.62
2022-08-11T10:59:36.602Z,93.45
2022-08-11T11:04:52.800Z,91.27
2022-08-11T11:09:59.454Z,91.09
2022-08-11T11:15:22.077Z,91.70
2022-08-11T11:20:36.078Z,93.28
2022-08-11T11:26:07.192Z,94.78
2022-08-11T11:31:24.035Z,91.35
2022-08-11T11:36:35.028Z,91.84
2022-08-11T11:41:40.319Z,89.16
2022-08-11T11:46:45.762Z,90.33
2022-08-11T11:51:50.820Z,87.48
2022-08-11T11:56:57.073Z,86.39
2022-08-11T12:02:01.328Z,85.56
2022-08-11T12:07:35.348Z,88.83
2022-08-11T12:12:58.629Z,90.21
2022-08-11T12:18:02.559Z,84.86
2022-08-11T12:23:24.773Z,82.68
2022-08-11T12:28:30.093Z,82.97
2022-08-11T12:33:35.149Z,102.84
2022-08-11T12:38:40.574Z,110.60
2022-08-11T12:44:08.502Z,118.22
2022-08-11T12:49:32.996Z,1.91
2022-08-11T12:54:44.856Z,1.64
2022-08-11T13:00:08.479Z,-2.69
2022-08-11T13:05:14.629Z,-3.54
2022-08-11T13:10:39.266Z,-0.00
2022-08-11T13:15:46.581Z,1.39
2022-08-11T13:20:50.266Z,1.81
2022-08-11T13:25:55.289Z,1.93
2022-08-11T13:31:11.798Z,3.53
2022-08-11T13:36:19.689Z,0.13
2022-08-11T13:41:39.484Z,-4.89
2022-08-11T13:46:44.540Z,0.44
2022-08-11T13:51:48.337Z,2.22
2022-08-11T13:56:54.959Z,5.73
2022-08-11T14:02:28.425Z,6.98
2022-08-11T14:07:34.939Z,5.84
2022-08-11T14:12:58.862Z,0.78
2022-08-11T14:18:06.629Z,-1.60
2022-08-11T14:23:14.290Z,116.38
2022-08-11T14:28:31.185Z,-0.69
2022-08-11T14:34:00.169Z,2.92
2022-08-11T14:39:04.711Z,3.77
2022-08-11T14:44:29.390Z,118.15
2022-08-11T14:49:36.177Z,118.11
2022-08-11T14:55:18.085Z,1.81
2022-08-11T15:00:21.235Z,-0.39
2022-08-11T15:05:27.735Z,110.23
2022-08-11T15:10:31.094Z,102.06
2022-08-11T15:15:53.365Z,101.41
2022-08-11T15:21:17.542Z,105.22
2022-08-11T15:26:44.575Z,102.60
2022-08-11T15:32:06.695Z,100.54
2022-08-11T15:37:28.012Z,102.69
2022-08-11T15:42:51.027Z,101.42
2022-08-11T15:48:05.146Z,97.15
2022-08-11T15:53:18.555Z,98.52
2022-08-11T15:58:42.619Z,89.90
2022-08-11T16:04:12.211Z,91.81
2022-08-11T16:09:21.408Z,93.25
2022-08-11T16:14:45.278Z,93.02
2022-08-11T16:19:51.892Z,90.86
2022-08-11T16:27:04.288Z,94.89
2022-08-11T16:30:21.321Z,101.94
2022-08-11T16:35:44.248Z,92.44
2022-08-11T16:40:51.392Z,91.47
2022-08-11T16:46:14.966Z,95.51
2022-08-11T16:51:21.129Z,92.32
2022-08-11T16:56:30.602Z,95.66
2022-08-11T17:01:34.264Z,92.55
2022-08-11T17:07:23.720Z,94.08
2022-08-11T17:12:53.694Z,92.92
2022-08-11T17:17:59.623Z,92.33
2022-08-11T17:23:22.750Z,92.21
2022-08-11T17:28:27.509Z,93.53
2022-08-11T17:33:52.079Z,91.82
2022-08-11T17:38:55.697Z,92.85
2022-08-11T17:44:20.070Z,95.09
2022-08-11T17:49:24.160Z,96.11
2022-08-11T17:54:47.055Z,97.68
2022-08-11T17:59:53.460Z,100.58
2022-08-11T18:04:57.888Z,103.05
2022-08-11T18:10:21.337Z,101.73
2022-08-11T18:15:50.072Z,103.08
2022-08-11T18:21:18.348Z,106.40
2022-08-11T18:26:42.317Z,105.27
2022-08-11T18:32:08.298Z,105.92
2022-08-11T18:37:34.298Z,108.11
2022-08-11T18:42:57.845Z,111.13
2022-08-11T18:48:24.974Z,113.03
2022-08-11T18:53:55.897Z,114.86
2022-08-11T18:59:21.340Z,117.11
2022-08-11T19:04:46.569Z,117.46
2022-08-11T19:10:08.464Z,118.79
2022-08-11T19:15:31.406Z,117.76
2022-08-11T19:20:55.454Z,117.63
2022-08-11T19:26:18.840Z,118.28
2022-08-11T19:31:44.805Z,118.15
2022-08-11T19:37:10.394Z,118.53
2022-08-11T19:42:33.222Z,-5.55
2022-08-11T19:48:14.087Z,-1.18
2022-08-11T19:53:38.338Z,-0.29
2022-08-11T19:59:01.530Z,0.13
2022-08-11T20:04:23.464Z,1.21
2022-08-11T20:10:04.770Z,1.30
2022-08-11T20:15:29.380Z,2.01
2022-08-11T20:20:51.710Z,2.09
2022-08-11T20:26:30.904Z,3.26
2022-08-11T20:31:53.116Z,3.95
2022-08-11T20:37:15.628Z,4.01
2022-08-11T20:42:39.672Z,4.41
2022-08-11T20:48:03.050Z,4.18
2022-08-11T20:53:26.611Z,3.12
2022-08-11T21:04:33.888Z,3.63
2022-08-11T21:10:09.446Z,3.51
2022-08-11T21:15:47.167Z,4.00
2022-08-11T21:21:20.750Z,3.81
2022-08-11T21:26:45.112Z,3.61
2022-08-11T21:32:11.231Z,4.25
2022-08-11T21:37:34.543Z,5.90
2022-08-11T21:43:02.178Z,7.11
2022-08-11T21:48:26.734Z,7.95
2022-08-11T21:53:49.853Z,7.37
2022-08-11T21:59:12.939Z,7.10
2022-08-11T22:04:37.965Z,7.29
2022-08-11T22:09:59.501Z,7.73
2022-08-11T22:15:21.364Z,8.45
2022-08-11T22:20:46.119Z,8.65
2022-08-11T22:26:11.814Z,9.05
2022-08-11T22:31:34.206Z,9.24
2022-08-11T22:36:57.807Z,9.08
2022-08-11T22:42:19.360Z,9.83
2022-08-11T22:47:47.120Z,11.23
2022-08-11T22:53:11.174Z,11.22
2022-08-11T22:58:34.481Z,12.54
2022-08-11T23:03:56.516Z,14.45
2022-08-11T23:09:21.199Z,14.48
2022-08-11T23:14:44.476Z,15.87
2022-08-11T23:20:15.168Z,15.23
2022-08-11T23:25:51.633Z,14.99
2022-08-11T23:31:15.847Z,14.84
2022-08-11T23:36:47.418Z,14.58
2022-08-11T23:42:10.953Z,14.34
2022-08-11T23:47:32.928Z,13.49
2022-08-11T23:53:11.938Z,13.24
2022-08-11T23:58:35.153Z,13.64
